Time;durP1;ratioP1;P1;durP2;ratioP2;P2;SDS_P1;SDS_P2;PMS_P1;PMS_P2;Temp;Humidity;BMP_temperature;BMP_pressure;BME280_temperature;BME280_humidity;BME280_pressure;Samples;Min_cycle;Max_cycle;Signal;HPM_P1;HPM_P2
2021/11/21 00:01:00;;;;;;;28.20;15.30;;;6.30;99.90;;;;;;5093883;28;20056;-64
2021/11/21 00:03:28;;;;;;;30.70;16.33;;;6.30;99.90;;;;;;5092571;28;20059;-64
2021/11/21 00:05:55;;;;;;;31.42;15.55;;;6.30;99.90;;;;;;5091914;28;20561;-64
2021/11/21 00:08:22;;;;;;;27.55;14.80;;;6.30;99.90;;;;;;5091694;28;20048;-64
2021/11/21 00:10:49;;;;;;;29.33;15.27;;;6.30;99.90;;;;;;5091943;28;20447;-65
2021/11/21 00:13:16;;;;;;;29.27;15.43;;;6.30;99.90;;;;;;5091072;28;20093;-64
2021/11/21 00:15:44;;;;;;;31.48;15.20;;;6.30;99.90;;;;;;5092623;28;20048;-63
2021/11/21 00:18:12;;;;;;;29.17;15.35;;;6.30;99.90;;;;;;5091626;28;20059;-65
2021/11/21 00:20:44;;;;;;;29.90;15.30;;;6.30;99.90;;;;;;5093871;28;20055;-64
2021/11/21 00:23:12;;;;;;;31.58;15.93;;;6.30;99.90;;;;;;5093019;28;20048;-65
2021/11/21 00:25:39;;;;;;;28.42;14.73;;;6.30;99.90;;;;;;5092171;28;20081;-65
2021/11/21 00:28:07;;;;;;;31.98;16.23;;;6.30;99.90;;;;;;5093082;28;20048;-64
2021/11/21 00:30:35;;;;;;;26.92;14.30;;;6.30;99.90;;;;;;5092843;28;20048;-65
2021/11/21 00:33:03;;;;;;;25.90;14.43;;;6.30;99.90;;;;;;5092448;28;20051;-65
2021/11/21 00:35:30;;;;;;;29.60;14.82;;;6.30;99.90;;;;;;5091723;28;20052;-65
2021/11/21 00:37:58;;;;;;;27.27;14.10;;;6.40;99.90;;;;;;5091112;28;20101;-64
2021/11/21 00:40:26;;;;;;;24.80;14.57;;;6.30;99.90;;;;;;5091295;28;20056;-64
2021/11/21 00:42:57;;;;;;;25.50;14.30;;;6.30;99.90;;;;;;5090477;28;20051;-64
2021/11/21 00:45:24;;;;;;;24.92;13.35;;;6.30;99.90;;;;;;5090793;28;20071;-64
2021/11/21 00:47:51;;;;;;;26.13;14.10;;;6.30;99.90;;;;;;5090789;28;20052;-65
2021/11/21 00:50:24;;;;;;;30.40;15.48;;;6.30;99.90;;;;;;5091114;28;20097;-64
2021/11/21 00:52:57;;;;;;;26.05;13.65;;;6.20;99.90;;;;;;5090504;28;20465;-64
2021/11/21 00:55:32;;;;;;;30.30;15.55;;;6.20;99.90;;;;;;5089589;28;20126;-64
2021/11/21 00:57:59;;;;;;;25.92;14.90;;;6.10;99.90;;;;;;5090111;28;20056;-64
2021/11/21 01:00:26;;;;;;;26.23;14.50;;;6.10;99.90;;;;;;5090742;28;20056;-64
2021/11/21 01:02:53;;;;;;;27.95;14.07;;;6.10;99.90;;;;;;5090543;28;20541;-64
2021/11/21 01:05:22;;;;;;;30.42;15.48;;;6.10;99.90;;;;;;5090039;28;20097;-65
2021/11/21 01:07:49;;;;;;;28.40;15.23;;;6.10;99.90;;;;;;5090039;28;20059;-65
2021/11/21 01:10:18;;;;;;;27.00;15.73;;;6.10;99.90;;;;;;5090742;28;20052;-64
2021/11/21 01:12:46;;;;;;;26.60;15.00;;;6.20;99.90;;;;;;5090043;28;20090;-65
2021/11/21 01:15:18;;;;;;;27.88;14.63;;;6.20;99.90;;;;;;5089384;28;20116;-64
2021/11/21 01:17:45;;;;;;;26.83;15.13;;;6.10;99.90;;;;;;5090266;28;20142;-65
2021/11/21 01:20:12;;;;;;;28.65;16.83;;;6.00;99.90;;;;;;5090166;28;20052;-64
2021/11/21 01:22:41;;;;;;;27.48;15.38;;;6.00;99.90;;;;;;5089296;28;20051;-64
2021/11/21 01:25:10;;;;;;;29.08;15.35;;;6.00;99.90;;;;;;5089101;28;20052;-64
2021/11/21 01:27:37;;;;;;;28.38;15.68;;;6.00;99.90;;;;;;5089890;28;20056;-64
2021/11/21 01:30:10;;;;;;;27.05;15.43;;;6.10;99.90;;;;;;5090127;28;20048;-64
2021/11/21 01:32:37;;;;;;;31.73;15.38;;;6.00;99.90;;;;;;5089019;28;20129;-64
2021/11/21 01:35:05;;;;;;;27.67;15.00;;;5.90;99.90;;;;;;5088903;28;20104;-64
2021/11/21 01:37:32;;;;;;;30.90;15.88;;;5.90;99.90;;;;;;5089630;28;20044;-65
2021/11/21 01:40:01;;;;;;;27.98;14.80;;;5.90;99.90;;;;;;5089984;28;20048;-65
2021/11/21 01:42:28;;;;;;;27.77;15.60;;;5.90;99.90;;;;;;5089637;28;20044;-65
2021/11/21 01:44:55;;;;;;;29.02;15.75;;;6.00;99.90;;;;;;5089514;28;20106;-64
2021/11/21 01:47:22;;;;;;;30.25;15.60;;;5.90;99.90;;;;;;5089852;28;20055;-64
2021/11/21 01:49:50;;;;;;;28.55;15.07;;;5.90;99.90;;;;;;5089551;28;20416;-64
2021/11/21 01:52:17;;;;;;;26.80;15.15;;;5.90;99.90;;;;;;5089481;28;20446;-64
2021/11/21 01:54:44;;;;;;;28.58;15.82;;;6.00;99.90;;;;;;5088409;28;20052;-64
2021/11/21 01:57:13;;;;;;;30.80;16.67;;;5.90;99.90;;;;;;5089769;28;20121;-64
2021/11/21 01:59:41;;;;;;;29.77;15.70;;;5.90;99.90;;;;;;5089847;28;20117;-64
2021/11/21 02:02:08;;;;;;;31.73;15.32;;;5.90;99.90;;;;;;5089608;28;20515;-64
2021/11/21 02:04:35;;;;;;;31.38;16.63;;;5.80;99.90;;;;;;5089500;28;20047;-64
2021/11/21 02:07:02;;;;;;;27.52;14.98;;;5.80;99.90;;;;;;5089443;28;20048;-64
2021/11/21 02:09:29;;;;;;;34.38;15.35;;;5.80;99.90;;;;;;5089698;28;20120;-64
2021/11/21 02:11:56;;;;;;;31.10;16.33;;;5.70;99.90;;;;;;5089751;28;20044;-64
2021/11/21 02:14:25;;;;;;;33.08;15.98;;;5.80;99.90;;;;;;5089462;28;20419;-64
2021/11/21 02:16:52;;;;;;;27.50;15.13;;;5.90;99.90;;;;;;5089029;28;20094;-64
2021/11/21 02:19:19;;;;;;;31.30;15.15;;;5.80;99.90;;;;;;5089434;28;20052;-64
2021/11/21 02:21:48;;;;;;;27.52;15.10;;;5.80;99.90;;;;;;5089645;28;20079;-64
2021/11/21 02:24:15;;;;;;;30.17;17.40;;;5.70;99.90;;;;;;5089357;28;20056;-64
2021/11/21 02:26:42;;;;;;;29.40;15.75;;;5.70;99.90;;;;;;5089203;28;20408;-64
2021/11/21 02:29:11;;;;;;;33.05;16.90;;;5.70;99.90;;;;;;5089232;28;20105;-64
2021/11/21 02:31:39;;;;;;;30.30;15.82;;;5.70;99.90;;;;;;5089512;28;20472;-64
2021/11/21 02:34:06;;;;;;;30.15;15.88;;;5.70;99.90;;;;;;5089538;28;20091;-64
2021/11/21 02:36:33;;;;;;;27.88;15.73;;;5.70;99.90;;;;;;5089071;28;20139;-64
2021/11/21 02:39:03;;;;;;;27.80;14.82;;;5.70;99.90;;;;;;5088724;28;20114;-64
2021/11/21 02:41:30;;;;;;;28.98;16.02;;;5.70;99.90;;;;;;5089031;28;20101;-64
2021/11/21 02:43:57;;;;;;;31.52;17.05;;;5.70;99.90;;;;;;5090063;28;20098;-64
2021/11/21 02:46:24;;;;;;;29.25;15.90;;;5.70;99.90;;;;;;5092213;28;20056;-64
2021/11/21 02:48:51;;;;;;;32.60;16.80;;;5.60;99.90;;;;;;5092781;28;20052;-64
2021/11/21 02:51:19;;;;;;;31.85;16.50;;;5.60;99.90;;;;;;5092882;28;20358;-64
2021/11/21 02:53:46;;;;;;;28.88;16.27;;;5.70;99.90;;;;;;5092222;28;20097;-64
2021/11/21 03:43:43;;;;;;;28.95;15.77;;;5.50;99.90;;;;;;5107408;28;20047;-74
2021/11/21 03:46:10;;;;;;;30.38;16.60;;;5.50;99.90;;;;;;5093944;28;20044;-70
2021/11/21 03:48:37;;;;;;;30.48;16.67;;;5.60;99.90;;;;;;5094454;28;20105;-70
2021/11/21 03:51:04;;;;;;;30.13;17.48;;;5.50;99.90;;;;;;5093617;28;20052;-74
2021/11/21 03:53:31;;;;;;;30.60;17.83;;;5.60;99.90;;;;;;5093075;28;20040;-72
2021/11/21 03:55:59;;;;;;;32.85;17.40;;;5.60;99.90;;;;;;5092385;28;20500;-70
2021/11/21 03:58:26;;;;;;;30.50;16.98;;;5.60;99.90;;;;;;5094300;28;20063;-72
2021/11/21 04:00:54;;;;;;;34.38;17.50;;;5.60;99.90;;;;;;5093164;28;20044;-70
2021/11/21 04:03:22;;;;;;;33.05;17.98;;;5.60;99.90;;;;;;5094050;28;20056;-70
2021/11/21 04:05:49;;;;;;;30.92;16.85;;;5.60;99.90;;;;;;5093065;28;20047;-70
2021/11/21 04:08:16;;;;;;;33.63;18.38;;;5.60;99.90;;;;;;5093884;28;20060;-70
2021/11/21 04:10:43;;;;;;;33.35;19.02;;;5.60;99.90;;;;;;5093998;28;20052;-70
2021/11/21 04:13:10;;;;;;;36.13;19.42;;;5.60;99.90;;;;;;5093168;28;20561;-72
2021/11/21 04:15:38;;;;;;;31.65;16.95;;;5.60;99.90;;;;;;5092466;28;20052;-70
2021/11/21 04:18:09;;;;;;;32.97;18.02;;;5.50;99.90;;;;;;5093503;28;20052;-70
2021/11/21 04:20:36;;;;;;;32.85;18.33;;;5.50;99.90;;;;;;5092796;28;20052;-71
2021/11/21 04:23:03;;;;;;;35.33;17.73;;;5.40;99.90;;;;;;5093498;28;20413;-70
2021/11/21 04:25:30;;;;;;;34.58;17.70;;;5.40;99.90;;;;;;5092534;28;20044;-68
2021/11/21 04:27:57;;;;;;;34.30;17.77;;;5.50;99.90;;;;;;5093719;28;20557;-68
2021/11/21 04:30:25;;;;;;;34.13;17.92;;;5.50;99.90;;;;;;5092650;28;20488;-68
2021/11/21 04:32:52;;;;;;;32.50;16.88;;;5.50;99.90;;;;;;5093179;28;20040;-69
2021/11/21 04:35:21;;;;;;;33.10;17.63;;;5.40;99.90;;;;;;5092290;28;20397;-68
2021/11/21 04:37:49;;;;;;;32.00;17.00;;;5.40;99.90;;;;;;5092674;28;20051;-69
2021/11/21 04:40:18;;;;;;;31.42;16.73;;;5.40;99.90;;;;;;5092893;28;20048;-69
2021/11/21 04:42:45;;;;;;;33.42;17.15;;;5.50;99.90;;;;;;5092748;28;20496;-69
2021/11/21 04:45:13;;;;;;;32.15;16.70;;;5.40;99.90;;;;;;5092061;28;20112;-69
2021/11/21 04:47:41;;;;;;;33.28;17.27;;;5.40;99.90;;;;;;5093766;28;20048;-69
2021/11/21 04:50:11;;;;;;;32.10;17.45;;;5.40;99.90;;;;;;5093437;28;20052;-71
2021/11/21 04:52:40;;;;;;;32.92;18.52;;;5.40;99.90;;;;;;5092830;28;20044;-68
2021/11/21 04:55:08;;;;;;;35.20;17.98;;;5.40;99.90;;;;;;5092402;28;20127;-68
2021/11/21 04:57:39;;;;;;;38.70;18.67;;;5.40;99.90;;;;;;5092584;28;20446;-72
2021/11/21 05:00:09;;;;;;;35.90;18.60;;;5.40;99.90;;;;;;5092516;28;20055;-69
2021/11/21 05:02:40;;;;;;;37.03;18.38;;;5.40;99.90;;;;;;5092547;28;20047;-73
2021/11/21 05:05:08;;;;;;;35.03;18.25;;;5.40;99.90;;;;;;5091210;28;20217;-69
2021/11/21 05:07:35;;;;;;;34.90;17.15;;;5.40;99.90;;;;;;5091537;28;20484;-68
2021/11/21 05:10:05;;;;;;;34.13;17.38;;;5.40;99.90;;;;;;5091456;28;20054;-74
2021/11/21 05:12:32;;;;;;;35.85;18.45;;;5.40;99.90;;;;;;5092293;28;20052;-69
2021/11/21 05:15:00;;;;;;;35.53;18.25;;;5.40;99.90;;;;;;5091184;28;20043;-71
2021/11/21 05:17:28;;;;;;;34.38;18.23;;;5.40;99.90;;;;;;5092367;28;20123;-70
2021/11/21 05:19:58;;;;;;;39.72;18.58;;;5.50;99.90;;;;;;5090859;28;20048;-71
2021/11/21 05:22:25;;;;;;;33.88;17.83;;;5.50;99.90;;;;;;5091704;28;20055;-75
2021/11/21 05:24:53;;;;;;;34.33;16.95;;;5.60;99.90;;;;;;5090854;28;20419;-69
2021/11/21 05:27:23;;;;;;;33.60;17.55;;;5.50;99.90;;;;;;5091713;28;20051;-69
2021/11/21 05:29:51;;;;;;;33.22;17.38;;;5.50;99.90;;;;;;5091499;28;20048;-71
2021/11/21 05:32:18;;;;;;;33.38;17.30;;;5.50;99.90;;;;;;5092121;28;20052;-69
2021/11/21 05:34:45;;;;;;;35.10;18.70;;;5.50;99.90;;;;;;5091096;28;20473;-72
2021/11/21 05:37:14;;;;;;;36.80;17.75;;;5.50;99.90;;;;;;5091762;28;20097;-69
2021/11/21 05:39:41;;;;;;;32.97;17.30;;;5.50;99.90;;;;;;5092041;28;20099;-69
2021/11/21 05:42:08;;;;;;;34.88;17.58;;;5.40;99.90;;;;;;5091433;28;20077;-69
2021/11/21 05:44:37;;;;;;;39.95;20.05;;;5.40;99.90;;;;;;5091467;28;20506;-69
2021/11/21 05:47:04;;;;;;;36.50;18.35;;;5.50;99.90;;;;;;5091079;28;20470;-69
2021/11/21 05:49:32;;;;;;;38.67;18.58;;;5.40;99.90;;;;;;5091522;28;20055;-71
2021/11/21 05:52:00;;;;;;;40.38;18.20;;;5.40;99.90;;;;;;5091870;28;20072;-69
2021/11/21 05:54:27;;;;;;;38.65;18.10;;;5.50;99.90;;;;;;5091586;28;20052;-69
2021/11/21 05:56:54;;;;;;;36.72;18.73;;;5.40;99.90;;;;;;5090632;28;20044;-69
2021/11/21 05:59:21;;;;;;;37.53;18.20;;;5.50;99.90;;;;;;5091836;28;20059;-69
2021/11/21 06:01:49;;;;;;;35.58;18.20;;;5.50;99.90;;;;;;5091491;28;20056;-69
2021/11/21 06:04:17;;;;;;;37.15;17.45;;;5.50;99.90;;;;;;5090919;28;20265;-72
2021/11/21 06:06:44;;;;;;;42.30;19.55;;;5.40;99.90;;;;;;5090865;28;20048;-72
2021/11/21 06:09:11;;;;;;;36.95;17.55;;;5.50;99.90;;;;;;5091412;28;20052;-71
2021/11/21 06:11:38;;;;;;;33.95;17.48;;;5.50;99.90;;;;;;5090876;28;20101;-72
2021/11/21 06:14:05;;;;;;;34.75;17.15;;;5.40;99.90;;;;;;5091730;28;20051;-71
2021/11/21 06:16:32;;;;;;;36.08;16.38;;;5.50;99.90;;;;;;5090824;28;20458;-74
2021/11/21 06:19:01;;;;;;;40.13;17.42;;;5.40;99.90;;;;;;5095012;28;20052;-70
2021/11/21 06:21:28;;;;;;;35.83;17.80;;;5.40;99.90;;;;;;5095746;28;20056;-71
2021/11/21 06:23:55;;;;;;;33.90;16.73;;;5.30;99.90;;;;;;5095503;28;20083;-71
2021/11/21 06:26:22;;;;;;;34.13;17.42;;;5.40;99.90;;;;;;5093915;28;20055;-74
2021/11/21 06:28:49;;;;;;;34.83;17.30;;;5.40;99.90;;;;;;5095433;28;20052;-69
2021/11/21 06:31:16;;;;;;;38.65;17.25;;;5.40;99.90;;;;;;5095158;28;20059;-68
2021/11/21 06:33:44;;;;;;;36.85;18.17;;;5.40;99.90;;;;;;5094923;28;20461;-68
2021/11/21 06:36:12;;;;;;;36.75;16.95;;;5.40;99.90;;;;;;5094464;28;20059;-68
2021/11/21 06:38:41;;;;;;;39.75;18.50;;;5.30;99.90;;;;;;5095335;28;20048;-68
2021/11/21 06:41:09;;;;;;;35.85;17.48;;;5.30;99.90;;;;;;5094998;28;20113;-68
2021/11/21 06:43:36;;;;;;;38.05;17.60;;;5.40;99.90;;;;;;5095111;28;20047;-68
2021/11/21 06:46:03;;;;;;;33.03;17.00;;;5.40;99.90;;;;;;5094403;28;20093;-68
2021/11/21 06:48:30;;;;;;;41.10;18.40;;;5.40;99.90;;;;;;5095170;28;20044;-68
2021/11/21 06:50:57;;;;;;;41.00;18.33;;;5.40;99.90;;;;;;5094728;28;20048;-68
2021/11/21 06:53:25;;;;;;;39.53;18.40;;;5.30;99.90;;;;;;5094559;28;20044;-73
2021/11/21 06:55:52;;;;;;;39.55;18.45;;;5.40;99.90;;;;;;5093559;28;20055;-68
2021/11/21 06:58:19;;;;;;;34.95;17.60;;;5.30;99.90;;;;;;5095435;28;20052;-71
2021/11/21 07:00:47;;;;;;;38.30;18.52;;;5.40;99.90;;;;;;5095109;28;20081;-71
2021/11/21 07:03:14;;;;;;;38.13;17.25;;;5.40;99.90;;;;;;5094485;28;20058;-70
2021/11/21 07:05:41;;;;;;;37.00;17.58;;;5.40;99.90;;;;;;5094204;28;20488;-70
2021/11/21 07:08:08;;;;;;;42.45;19.15;;;5.40;99.90;;;;;;5094317;28;20059;-69
2021/11/21 07:10:37;;;;;;;41.45;18.30;;;5.50;99.90;;;;;;5094484;28;20081;-69
2021/11/21 07:13:04;;;;;;;43.08;18.63;;;5.50;99.90;;;;;;5093749;28;20048;-69
2021/11/21 07:15:32;;;;;;;39.97;19.02;;;5.50;99.90;;;;;;5093293;28;20090;-72
2021/11/21 07:17:59;;;;;;;40.33;18.30;;;5.50;99.90;;;;;;5093892;28;20101;-69
2021/11/21 07:20:26;;;;;;;40.47;18.42;;;5.50;99.90;;;;;;5093864;28;20055;-70
2021/11/21 07:22:54;;;;;;;44.38;18.73;;;5.50;99.90;;;;;;5093270;28;20047;-69
2021/11/21 07:25:23;;;;;;;45.78;18.98;;;5.50;99.90;;;;;;5093034;28;20457;-69
2021/11/21 07:27:53;;;;;;;41.75;19.98;;;5.50;99.90;;;;;;5093758;28;20305;-69
2021/11/21 07:30:22;;;;;;;44.80;18.88;;;5.40;99.90;;;;;;5093210;28;20059;-69
2021/11/21 07:32:50;;;;;;;37.42;18.02;;;5.50;99.90;;;;;;5093058;28;20052;-70
2021/11/21 07:35:19;;;;;;;44.25;18.23;;;5.50;99.90;;;;;;5092849;28;20044;-69
2021/11/21 07:37:47;;;;;;;42.97;18.85;;;5.50;99.90;;;;;;5093722;28;20048;-71
2021/11/21 07:40:15;;;;;;;40.17;18.92;;;5.50;99.90;;;;;;5093415;28;20469;-68
2021/11/21 07:42:43;;;;;;;40.25;19.50;;;5.50;99.90;;;;;;5093307;28;20101;-70
2021/11/21 07:45:13;;;;;;;42.30;19.05;;;5.60;99.90;;;;;;5092398;28;20486;-69
2021/11/21 07:47:40;;;;;;;38.10;18.63;;;5.60;99.90;;;;;;5093223;28;20056;-69
2021/11/21 07:50:08;;;;;;;39.75;18.35;;;5.60;99.90;;;;;;5093437;28;20047;-69
2021/11/21 07:52:35;;;;;;;48.05;20.77;;;5.60;99.90;;;;;;5093203;28;20469;-69
2021/11/21 07:55:03;;;;;;;43.60;19.15;;;5.60;99.90;;;;;;5092128;28;20048;-68
2021/11/21 07:57:30;;;;;;;43.25;19.73;;;5.60;99.90;;;;;;5092803;28;20070;-69
2021/11/21 07:59:57;;;;;;;44.85;19.98;;;5.70;99.90;;;;;;5093222;28;20052;-69
2021/11/21 08:02:25;;;;;;;40.75;18.83;;;5.60;99.90;;;;;;5092496;28;20044;-68
2021/11/21 08:04:52;;;;;;;46.22;19.98;;;5.70;99.90;;;;;;5092465;28;20126;-69
2021/11/21 08:07:19;;;;;;;41.13;19.58;;;5.70;99.90;;;;;;5093171;28;20048;-69
2021/11/21 08:09:46;;;;;;;50.97;19.35;;;5.70;99.90;;;;;;5093264;28;20044;-70
2021/11/21 08:12:13;;;;;;;44.60;20.42;;;5.70;99.90;;;;;;5093088;28;20475;-70
2021/11/21 08:14:43;;;;;;;44.22;20.40;;;5.70;99.90;;;;;;5092615;28;20044;-69
2021/11/21 08:17:10;;;;;;;45.88;20.63;;;5.80;99.90;;;;;;5092374;28;20056;-69
2021/11/21 08:19:39;;;;;;;45.13;21.15;;;5.80;99.90;;;;;;5092290;28;20048;-69
2021/11/21 08:22:07;;;;;;;41.60;20.27;;;5.90;99.90;;;;;;5092527;28;20508;-69
2021/11/21 08:24:34;;;;;;;42.30;19.77;;;5.90;99.90;;;;;;5092272;28;20110;-69
2021/11/21 08:27:01;;;;;;;44.97;20.80;;;5.80;99.90;;;;;;5092058;28;20048;-70
2021/11/21 08:29:28;;;;;;;46.85;21.55;;;5.80;99.90;;;;;;5092070;28;20048;-69
2021/11/21 08:31:56;;;;;;;46.72;22.50;;;5.80;99.90;;;;;;5092076;28;20052;-69
2021/11/21 08:34:24;;;;;;;42.55;20.35;;;5.80;99.90;;;;;;5092329;28;20051;-72
2021/11/21 08:36:52;;;;;;;46.30;21.08;;;5.90;99.90;;;;;;5091419;28;20059;-70
2021/11/21 08:39:21;;;;;;;49.33;21.63;;;5.90;99.90;;;;;;5093118;28;20052;-68
2021/11/21 08:41:48;;;;;;;44.17;20.38;;;5.80;99.90;;;;;;5093102;28;20505;-69
2021/11/21 08:44:15;;;;;;;48.40;22.00;;;5.70;99.90;;;;;;5093023;28;20051;-69
2021/11/21 08:46:42;;;;;;;45.10;21.35;;;5.60;99.90;;;;;;5092712;28;20051;-68
2021/11/21 08:49:10;;;;;;;49.03;21.30;;;5.60;99.90;;;;;;5092455;28;20043;-69
2021/11/21 08:51:37;;;;;;;49.65;22.20;;;5.60;99.90;;;;;;5093565;28;20051;-69
2021/11/21 08:54:06;;;;;;;46.35;20.83;;;5.60;99.90;;;;;;5093563;28;20055;-68
2021/11/21 08:56:33;;;;;;;52.03;23.30;;;5.60;99.90;;;;;;5097401;22;20442;-65
2021/11/21 08:59:00;;;;;;;50.22;20.67;;;5.60;99.90;;;;;;5070566;28;20052;-65
2021/11/21 09:01:27;;;;;;;49.40;20.60;;;5.50;99.90;;;;;;5070407;28;20044;-65
2021/11/21 09:03:54;;;;;;;50.25;21.92;;;5.60;99.90;;;;;;5069881;28;20459;-65
2021/11/21 09:06:21;;;;;;;49.13;20.08;;;5.50;99.90;;;;;;5069755;28;20048;-66
2021/11/21 09:08:48;;;;;;;47.10;20.73;;;5.50;99.90;;;;;;5070446;28;20500;-65
2021/11/21 09:11:16;;;;;;;52.80;21.30;;;5.50;99.90;;;;;;5070551;28;20044;-65
2021/11/21 09:13:44;;;;;;;51.40;21.38;;;5.50;99.90;;;;;;5069896;28;20466;-65
2021/11/21 09:16:11;;;;;;;51.85;21.27;;;5.50;99.90;;;;;;5070180;28;20044;-65
2021/11/21 09:18:38;;;;;;;49.30;21.05;;;5.50;99.90;;;;;;5070856;28;20057;-66
2021/11/21 09:21:05;;;;;;;44.22;18.65;;;5.50;99.90;;;;;;5071122;28;20052;-66
2021/11/21 09:23:32;;;;;;;46.42;19.80;;;5.60;99.90;;;;;;5070815;28;20131;-66
2021/11/21 09:25:59;;;;;;;47.70;19.58;;;5.60;99.90;;;;;;5070379;28;20048;-66
2021/11/21 09:28:28;;;;;;;50.40;20.42;;;5.60;99.90;;;;;;5070830;28;20052;-66
2021/11/21 09:30:56;;;;;;;47.03;19.02;;;5.80;99.90;;;;;;5070488;28;20048;-66
2021/11/21 09:33:24;;;;;;;41.65;19.15;;;5.90;99.90;;;;;;5070799;28;20480;-66
2021/11/21 09:35:51;;;;;;;43.03;19.35;;;5.90;99.90;;;;;;5070336;28;20045;-66
2021/11/21 09:38:20;;;;;;;37.95;18.13;;;6.00;99.90;;;;;;5070774;28;20496;-66
2021/11/21 09:40:48;;;;;;;38.63;17.17;;;5.90;99.90;;;;;;5070835;28;20407;-66
2021/11/21 09:43:15;;;;;;;31.83;14.55;;;5.90;99.90;;;;;;5070649;28;20044;-66
2021/11/21 09:45:43;;;;;;;28.63;13.25;;;5.90;99.90;;;;;;5069964;28;20929;-66
2021/11/21 09:48:11;;;;;;;29.65;13.70;;;5.80;99.90;;;;;;5074695;28;20106;-66
2021/11/21 09:50:41;;;;;;;25.70;12.48;;;5.80;99.90;;;;;;5073493;28;20045;-66
2021/11/21 09:53:08;;;;;;;26.73;11.90;;;5.80;99.90;;;;;;5071278;28;20088;-66
2021/11/21 09:55:36;;;;;;;23.95;11.45;;;5.90;99.90;;;;;;5069806;28;20052;-66
2021/11/21 09:58:04;;;;;;;22.63;10.57;;;5.80;99.90;;;;;;5070374;28;20048;-66
2021/11/21 10:00:32;;;;;;;23.42;10.95;;;5.90;99.90;;;;;;5070613;28;20049;-66
2021/11/21 10:03:03;;;;;;;27.60;11.38;;;5.90;99.90;;;;;;5070413;28;20106;-66
2021/11/21 10:05:33;;;;;;;25.83;12.55;;;5.90;99.90;;;;;;5070247;28;20052;-66
2021/11/21 10:08:05;;;;;;;26.70;12.55;;;5.90;99.90;;;;;;5070273;28;20498;-66
2021/11/21 10:10:37;;;;;;;23.00;11.77;;;6.00;99.90;;;;;;5070269;28;20044;-66
2021/11/21 10:13:04;;;;;;;22.95;11.27;;;6.10;99.90;;;;;;5070361;28;20393;-66
2021/11/21 10:15:32;;;;;;;25.83;11.68;;;6.10;99.90;;;;;;5069769;28;20455;-66
2021/11/21 10:18:00;;;;;;;22.42;10.57;;;6.00;99.90;;;;;;5070358;28;20056;-66
2021/11/21 10:20:29;;;;;;;25.17;12.20;;;6.00;99.90;;;;;;5069465;28;20401;-66
2021/11/21 10:23:02;;;;;;;25.40;11.90;;;6.00;99.90;;;;;;5069264;28;20163;-66
2021/11/21 10:25:48;;;;;;;23.83;11.73;;;5.90;99.90;;;;;;5069127;28;20055;-66
2021/11/21 10:28:19;;;;;;;25.58;13.15;;;5.90;99.90;;;;;;5069297;28;20070;-66
2021/11/21 10:31:05;;;;;;;25.50;11.77;;;5.90;99.90;;;;;;5069485;28;20048;-66
2021/11/21 10:33:35;;;;;;;23.98;12.45;;;5.90;99.90;;;;;;5069359;28;20128;-66
2021/11/21 10:36:05;;;;;;;26.00;13.05;;;6.00;99.90;;;;;;5068657;28;20045;-66
2021/11/21 10:38:36;;;;;;;30.00;12.57;;;6.00;99.90;;;;;;5069554;28;20515;-66
2021/11/21 10:41:11;;;;;;;27.42;13.43;;;6.10;99.90;;;;;;5069237;28;20102;-66
2021/11/21 10:43:49;;;;;;;25.20;11.73;;;6.10;99.90;;;;;;5070113;28;20057;-66
2021/11/21 10:46:32;;;;;;;26.27;13.05;;;6.20;99.90;;;;;;5069294;28;20515;-66
2021/11/21 10:49:20;;;;;;;27.67;13.10;;;6.30;99.90;;;;;;5069612;28;20060;-66
2021/11/21 10:51:50;;;;;;;31.15;14.60;;;6.30;99.90;;;;;;5070041;28;20067;-66
2021/11/21 10:54:22;;;;;;;24.63;12.25;;;6.30;99.90;;;;;;5070279;28;20557;-67
2021/11/21 10:56:50;;;;;;;26.10;12.00;;;6.40;99.90;;;;;;5069137;28;20049;-66
2021/11/21 10:59:34;;;;;;;27.23;12.82;;;6.40;99.90;;;;;;5069074;28;20451;-66
2021/11/21 11:02:06;;;;;;;28.55;13.43;;;6.30;99.90;;;;;;5068979;28;20139;-66
2021/11/21 11:04:34;;;;;;;31.67;14.55;;;6.30;99.90;;;;;;5070173;28;20102;-66
2021/11/21 11:07:12;;;;;;;28.55;14.20;;;6.20;99.90;;;;;;5072111;28;20075;-66
2021/11/21 11:09:39;;;;;;;28.67;14.10;;;6.20;99.90;;;;;;5072823;28;20098;-66
2021/11/21 11:12:07;;;;;;;28.58;13.80;;;6.30;99.90;;;;;;5073251;28;20052;-66
2021/11/21 11:14:34;;;;;;;25.25;12.10;;;6.30;99.90;;;;;;5073167;28;20053;-66
2021/11/21 11:17:01;;;;;;;26.13;13.55;;;6.30;99.90;;;;;;5072597;28;20048;-66
2021/11/21 11:19:30;;;;;;;32.83;14.68;;;6.40;99.90;;;;;;5073525;28;20558;-66
2021/11/21 11:21:58;;;;;;;26.52;12.65;;;6.30;99.90;;;;;;5073039;28;20105;-66
2021/11/21 11:24:27;;;;;;;29.70;14.48;;;6.10;99.90;;;;;;5072508;28;20082;-66
2021/11/21 11:27:02;;;;;;;31.00;14.40;;;6.20;99.90;;;;;;5072035;28;20044;-66
2021/11/21 11:29:37;;;;;;;30.23;14.65;;;6.10;99.90;;;;;;5072630;28;20055;-66
2021/11/21 11:32:23;;;;;;;31.88;14.90;;;6.10;99.90;;;;;;5072742;28;20063;-66
2021/11/21 11:34:51;;;;;;;32.30;14.85;;;6.10;99.90;;;;;;5071714;28;20109;-67
2021/11/21 11:37:40;;;;;;;32.20;15.85;;;6.20;99.90;;;;;;5072083;28;20094;-66
2021/11/21 11:40:45;;;;;;;32.40;15.40;;;6.30;99.90;;;;;;5064116;28;20048;-66
2021/11/21 11:43:34;;;;;;;37.22;15.15;;;6.30;99.90;;;;;;5066528;28;20127;-66
2021/11/21 11:46:04;;;;;;;32.58;14.80;;;6.30;99.90;;;;;;5065732;28;20074;-66
2021/11/21 11:48:39;;;;;;;31.77;14.32;;;6.30;99.90;;;;;;5071821;28;20094;-67
2021/11/21 11:51:11;;;;;;;31.85;15.13;;;6.20;99.90;;;;;;5075306;28;20051;-66
2021/11/21 11:53:42;;;;;;;29.58;14.55;;;6.10;99.90;;;;;;5072021;28;20462;-66
2021/11/21 11:56:16;;;;;;;27.02;12.52;;;6.10;99.90;;;;;;5072366;28;20052;-67
2021/11/21 11:58:48;;;;;;;26.27;12.88;;;6.10;99.90;;;;;;5071473;28;20411;-67
2021/11/21 12:01:53;;;;;;;26.05;12.63;;;6.10;99.90;;;;;;5070938;28;20056;-66
2021/11/21 12:04:46;;;;;;;23.45;11.25;;;6.00;99.90;;;;;;5050838;28;20103;-66
2021/11/21 12:07:49;;;;;;;28.35;13.52;;;6.10;99.90;;;;;;5052141;28;20151;-66
2021/11/21 12:10:23;;;;;;;27.63;11.57;;;6.20;99.90;;;;;;5052263;28;20056;-67
2021/11/21 12:13:07;;;;;;;27.23;13.55;;;6.20;99.90;;;;;;5051220;28;20061;-66
2021/11/21 12:15:48;;;;;;;23.48;11.38;;;6.10;99.90;;;;;;5050293;28;20072;-66
2021/11/21 12:18:15;;;;;;;25.25;11.20;;;6.10;99.90;;;;;;5052107;28;20059;-66
2021/11/21 12:20:49;;;;;;;26.33;12.93;;;6.20;99.90;;;;;;5051277;28;20060;-66
2021/11/21 12:23:56;;;;;;;29.95;13.07;;;6.20;99.90;;;;;;5051283;28;20053;-66
2021/11/21 12:26:28;;;;;;;23.10;11.23;;;6.30;99.90;;;;;;5050939;28;20566;-67
2021/11/21 12:29:04;;;;;;;23.45;12.25;;;6.20;99.90;;;;;;5055190;28;20145;-67
2021/11/21 12:31:34;;;;;;;24.80;11.25;;;6.20;99.90;;;;;;5051731;28;20409;-66
2021/11/21 12:34:30;;;;;;;25.23;12.02;;;6.10;99.90;;;;;;5051058;28;20521;-66
2021/11/21 12:37:18;;;;;;;23.73;10.88;;;6.10;99.90;;;;;;5050441;28;20049;-66
2021/11/21 12:39:50;;;;;;;24.48;11.10;;;6.10;99.90;;;;;;5051390;28;20507;-66
2021/11/21 12:42:24;;;;;;;25.90;13.05;;;6.10;99.90;;;;;;5051270;28;20056;-66
2021/11/21 12:45:03;;;;;;;20.52;10.27;;;6.20;99.90;;;;;;5051366;28;20049;-66
2021/11/21 12:47:30;;;;;;;20.15;9.90;;;6.10;99.90;;;;;;5052299;28;20067;-66
2021/11/21 12:49:57;;;;;;;23.23;10.80;;;6.10;99.90;;;;;;5050901;28;20053;-67
2021/11/21 12:52:24;;;;;;;22.00;10.90;;;6.10;99.90;;;;;;5051189;28;20053;-66
2021/11/21 12:54:52;;;;;;;25.30;11.50;;;6.10;99.90;;;;;;5054038;28;20095;-67
2021/11/21 12:57:21;;;;;;;20.73;10.05;;;6.10;99.90;;;;;;5058409;28;20056;-67
2021/11/21 12:59:54;;;;;;;21.38;10.75;;;6.10;99.90;;;;;;5051815;28;20060;-66
2021/11/21 13:02:24;;;;;;;22.25;11.43;;;6.20;99.90;;;;;;5050410;28;20053;-66
2021/11/21 13:04:57;;;;;;;20.58;9.52;;;6.20;99.90;;;;;;5049873;28;20049;-67
2021/11/21 13:07:26;;;;;;;19.92;10.43;;;6.20;99.90;;;;;;5050428;28;20519;-66
2021/11/21 13:10:03;;;;;;;21.70;9.80;;;6.20;99.90;;;;;;5049889;28;20405;-66
2021/11/21 13:12:34;;;;;;;20.35;9.50;;;6.10;99.90;;;;;;5050064;28;20052;-66
2021/11/21 13:15:04;;;;;;;20.95;9.65;;;6.10;99.90;;;;;;5049426;28;20356;-68
2021/11/21 13:17:31;;;;;;;20.83;9.50;;;6.10;99.90;;;;;;5050357;28;20048;-67
2021/11/21 13:20:10;;;;;;;18.27;8.85;;;6.10;99.90;;;;;;5050239;28;20052;-66
2021/11/21 13:22:52;;;;;;;23.23;10.60;;;6.10;99.90;;;;;;5050865;28;20072;-67
2021/11/21 13:25:40;;;;;;;21.13;10.20;;;6.10;99.90;;;;;;5049966;28;20417;-66
2021/11/21 13:28:37;;;;;;;23.27;10.68;;;6.00;99.90;;;;;;5049483;28;20064;-66
2021/11/21 13:31:19;;;;;;;20.08;10.20;;;6.00;99.90;;;;;;5051134;28;20052;-66
2021/11/21 13:33:48;;;;;;;22.98;10.88;;;6.10;99.90;;;;;;5050780;28;20052;-66
2021/11/21 13:36:22;;;;;;;22.48;9.77;;;6.10;99.90;;;;;;5049738;28;20489;-66
2021/11/21 13:38:53;;;;;;;21.08;10.52;;;6.10;99.90;;;;;;5050089;28;20412;-66